createdAt,value
2023-04-20T00:00:03.762Z,0.00
2023-04-20T00:01:02.593Z,0.00
2023-04-20T00:02:02.167Z,0.00
2023-04-20T00:03:01.681Z,0.00
2023-04-20T00:04:01.900Z,0.00
2023-04-20T00:05:01.685Z,0.00
2023-04-20T00:06:02.085Z,0.00
2023-04-20T00:07:02.402Z,0.00
2023-04-20T00:08:02.118Z,0.00
2023-04-20T00:09:02.075Z,0.00
2023-04-20T00:10:02.325Z,0.00
2023-04-20T00:11:02.058Z,0.00
2023-04-20T00:12:02.187Z,0.00
2023-04-20T00:13:01.836Z,0.00
2023-04-20T00:14:01.898Z,0.00
2023-04-20T00:15:01.769Z,0.00
2023-04-20T00:16:01.646Z,0.00
2023-04-20T00:17:02.873Z,0.00
2023-04-20T00:18:02.762Z,0.00
2023-04-20T00:19:02.440Z,0.00
2023-04-20T00:20:02.408Z,0.00
2023-04-20T00:21:02.427Z,0.00
2023-04-20T00:22:02.290Z,0.00
2023-04-20T00:23:02.726Z,0.00
2023-04-20T00:24:02.383Z,0.00
2023-04-20T00:25:02.616Z,0.00
2023-04-20T00:26:02.241Z,0.00
2023-04-20T00:27:02.100Z,0.00
2023-04-20T00:28:01.880Z,0.00
2023-04-20T00:29:02.318Z,0.00
2023-04-20T00:30:01.927Z,0.00
2023-04-20T00:31:02.402Z,0.00
2023-04-20T00:32:02.533Z,0.00
2023-04-20T00:33:01.944Z,0.00
2023-04-20T00:34:01.954Z,0.00
2023-04-20T00:35:02.445Z,0.00
2023-04-20T00:36:01.913Z,0.00
2023-04-20T00:37:02.957Z,0.00
2023-04-20T00:38:02.522Z,0.00
2023-04-20T00:39:02.397Z,0.00
2023-04-20T00:40:02.747Z,0.00
2023-04-20T00:41:02.618Z,0.00
2023-04-20T00:42:02.139Z,0.00
2023-04-20T00:43:02.084Z,0.00
2023-04-20T00:44:02.596Z,0.00
2023-04-20T00:45:02.180Z,0.00
2023-04-20T00:46:02.054Z,0.00
2023-04-20T00:47:01.821Z,0.00
2023-04-20T00:48:01.771Z,0.00
2023-04-20T00:49:01.675Z,0.00
2023-04-20T00:50:01.933Z,0.00
2023-04-20T00:51:01.622Z,0.00
2023-04-20T00:52:02.198Z,0.00
2023-04-20T00:53:02.645Z,0.00
2023-04-20T00:54:02.227Z,0.00
2023-04-20T00:55:02.057Z,0.00
2023-04-20T00:56:02.548Z,0.00
2023-04-20T00:57:02.232Z,0.00
2023-04-20T00:58:02.745Z,0.00
2023-04-20T00:59:02.139Z,0.00
2023-04-20T01:00:02.261Z,0.00
2023-04-20T01:01:02.753Z,0.00
2023-04-20T01:02:02.315Z,0.00
2023-04-20T01:03:02.912Z,0.00
2023-04-20T01:04:02.682Z,0.00
2023-04-20T01:05:02.327Z,0.00
2023-04-20T01:06:02.581Z,0.00
2023-04-20T01:07:02.446Z,0.00
2023-04-20T01:08:02.596Z,0.00
2023-04-20T01:09:02.849Z,0.00
2023-04-20T01:10:02.453Z,0.00
2023-04-20T01:11:02.269Z,0.00
2023-04-20T01:12:03.151Z,0.00
2023-04-20T01:13:03.158Z,0.00
2023-04-20T01:14:03.038Z,0.00
2023-04-20T01:15:02.939Z,0.00
2023-04-20T01:16:02.851Z,0.00
2023-04-20T01:17:02.481Z,0.00
2023-04-20T01:18:02.541Z,0.00
2023-04-20T01:19:02.293Z,0.00
2023-04-20T01:20:02.153Z,0.00
2023-04-20T01:21:02.252Z,0.00
2023-04-20T01:22:03.197Z,0.00
2023-04-20T01:23:02.655Z,0.00
2023-04-20T01:24:02.503Z,0.00
2023-04-20T01:25:02.979Z,0.00
2023-04-20T01:26:02.556Z,0.00
2023-04-20T01:27:03.161Z,0.00
2023-04-20T01:28:02.935Z,0.00
2023-04-20T01:29:02.844Z,0.00
2023-04-20T01:30:02.909Z,0.00
2023-04-20T01:31:03.345Z,0.00
2023-04-20T01:32:02.464Z,0.00
2023-04-20T01:33:02.740Z,0.00
2023-04-20T01:34:02.737Z,0.00
2023-04-20T01:35:02.331Z,0.00
2023-04-20T01:36:02.202Z,0.00
2023-04-20T01:37:02.463Z,0.00
2023-04-20T01:38:02.881Z,0.00
2023-04-20T01:39:02.707Z,0.00
2023-04-20T01:40:02.600Z,0.00
2023-04-20T01:41:02.588Z,0.00
2023-04-20T01:42:03.148Z,0.00
2023-04-20T01:43:03.041Z,0.00
2023-04-20T01:44:03.099Z,0.00
2023-04-20T01:45:03.001Z,0.00
2023-04-20T01:46:03.420Z,0.00
2023-04-20T01:47:02.682Z,0.00
2023-04-20T01:48:02.649Z,0.00
2023-04-20T01:49:02.919Z,0.00
2023-04-20T01:50:02.931Z,0.00
2023-04-20T01:51:02.816Z,0.00
2023-04-20T01:52:01.940Z,0.00
2023-04-20T01:53:02.473Z,0.00
2023-04-20T01:54:02.214Z,0.00
2023-04-20T01:55:02.006Z,0.00
2023-04-20T01:56:02.213Z,0.00
2023-04-20T01:57:02.921Z,0.00
2023-04-20T01:58:02.413Z,0.00
2023-04-20T01:59:02.821Z,0.00
2023-04-20T02:00:02.686Z,0.00
2023-04-20T02:01:02.479Z,0.00
2023-04-20T02:02:01.874Z,0.00
2023-04-20T02:03:01.826Z,0.00
2023-04-20T02:04:01.915Z,0.00
2023-04-20T02:05:01.909Z,0.00
2023-04-20T02:06:01.710Z,0.00
2023-04-20T02:07:02.326Z,0.00
2023-04-20T02:08:01.926Z,0.00
2023-04-20T02:09:02.394Z,0.00
2023-04-20T02:10:02.030Z,0.00
2023-04-20T02:11:01.966Z,0.00
2023-04-20T02:12:02.661Z,0.00
2023-04-20T02:13:02.674Z,0.00
2023-04-20T02:14:02.335Z,0.00
2023-04-20T02:15:02.261Z,0.00
2023-04-20T02:16:02.516Z,0.00
2023-04-20T02:17:02.296Z,0.00
2023-04-20T02:18:02.158Z,0.00
2023-04-20T02:19:01.941Z,0.00
2023-04-20T02:20:02.141Z,0.00
2023-04-20T02:21:01.729Z,0.00
2023-04-20T02:22:02.064Z,0.00
2023-04-20T02:23:01.914Z,0.00
2023-04-20T02:24:01.827Z,0.00
2023-04-20T02:25:02.318Z,0.00
2023-04-20T02:26:01.978Z,0.00
2023-04-20T02:27:02.459Z,0.00
2023-04-20T02:28:02.324Z,0.00
2023-04-20T02:29:02.391Z,0.00
2023-04-20T02:30:02.382Z,0.00
2023-04-20T02:31:02.057Z,0.00
2023-04-20T02:32:02.489Z,0.00
2023-04-20T02:33:02.385Z,0.00
2023-04-20T02:34:02.656Z,0.00
2023-04-20T02:35:02.543Z,0.00
2023-04-20T02:36:02.392Z,0.00
2023-04-20T02:37:02.039Z,0.00
2023-04-20T02:38:01.589Z,0.00
2023-04-20T02:39:01.487Z,0.00
2023-04-20T02:40:01.504Z,0.00
2023-04-20T02:41:01.564Z,0.00
2023-04-20T02:42:01.599Z,0.00
2023-04-20T02:43:01.786Z,0.00
2023-04-20T02:44:01.679Z,0.00
2023-04-20T02:45:01.749Z,0.00
2023-04-20T02:46:01.666Z,0.00
2023-04-20T02:47:02.100Z,0.00
2023-04-20T02:48:02.036Z,0.00
2023-04-20T02:49:01.664Z,0.00
2023-04-20T02:50:01.774Z,0.00
2023-04-20T02:51:01.817Z,0.00
2023-04-20T02:52:02.382Z,0.00
2023-04-20T02:53:01.973Z,0.00
2023-04-20T02:54:02.142Z,0.00
2023-04-20T02:55:01.997Z,0.00
2023-04-20T02:56:02.371Z,0.00
2023-04-20T02:57:02.316Z,0.00
2023-04-20T02:58:02.215Z,0.00
2023-04-20T02:59:02.716Z,0.00
2023-04-20T03:00:02.491Z,0.00
2023-04-20T03:01:02.418Z,0.00
2023-04-20T03:02:02.983Z,0.00
2023-04-20T03:03:03.061Z,0.00
2023-04-20T03:04:02.902Z,0.00
2023-04-20T03:05:02.708Z,0.00
2023-04-20T03:06:02.543Z,0.00
2023-04-20T03:07:03.157Z,0.00
2023-04-20T03:08:03.273Z,0.00
2023-04-20T03:09:03.175Z,0.00
2023-04-20T03:10:03.567Z,0.00
2023-04-20T03:11:03.198Z,0.00
2023-04-20T03:12:03.401Z,0.00
2023-04-20T03:13:03.198Z,0.00
2023-04-20T03:14:03.299Z,0.00
2023-04-20T03:15:03.115Z,0.00
2023-04-20T03:16:03.344Z,0.00
2023-04-20T03:17:02.250Z,0.00
2023-04-20T03:18:02.608Z,0.00
2023-04-20T03:19:02.384Z,0.00
2023-04-20T03:20:02.816Z,0.00
2023-04-20T03:21:02.333Z,0.00
2023-04-20T03:22:02.958Z,0.00
2023-04-20T03:23:03.522Z,0.00
2023-04-20T03:24:03.161Z,0.00
2023-04-20T03:25:03.005Z,0.00
2023-04-20T03:26:03.336Z,0.00
2023-04-20T03:27:02.483Z,0.00
2023-04-20T03:28:03.258Z,0.00
2023-04-20T03:29:02.796Z,0.00
2023-04-20T03:30:02.619Z,0.00
2023-04-20T03:31:02.894Z,0.00
2023-04-20T03:32:02.839Z,0.00
2023-04-20T03:33:03.269Z,0.00
2023-04-20T03:34:02.927Z,0.00
2023-04-20T03:35:03.225Z,0.00
2023-04-20T03:36:03.090Z,0.00
2023-04-20T03:37:02.921Z,0.00
2023-04-20T03:38:03.514Z,0.00
2023-04-20T03:39:03.526Z,0.00
2023-04-20T03:40:03.116Z,0.00
2023-04-20T03:41:03.387Z,0.00
2023-04-20T03:42:02.293Z,0.00
2023-04-20T03:43:02.816Z,0.00
2023-04-20T03:44:02.242Z,0.00
2023-04-20T03:45:02.256Z,0.00
2023-04-20T03:46:02.740Z,0.00
2023-04-20T03:47:02.482Z,0.00
2023-04-20T03:48:02.742Z,0.00
2023-04-20T03:49:02.643Z,0.00
2023-04-20T03:50:02.951Z,0.00
2023-04-20T03:51:02.577Z,0.00
2023-04-20T03:52:02.446Z,0.00
2023-04-20T03:53:02.584Z,0.00
2023-04-20T03:54:02.363Z,0.00
2023-04-20T03:55:03.000Z,0.00
2023-04-20T03:56:02.565Z,0.00
2023-04-20T03:57:03.099Z,0.00
2023-04-20T03:58:03.574Z,4.00
2023-04-20T03:59:03.326Z,4.00
2023-04-20T04:00:03.198Z,0.00
2023-04-20T04:01:03.061Z,4.00
2023-04-20T04:02:02.654Z,4.00
2023-04-20T04:03:03.314Z,4.00
2023-04-20T04:04:02.791Z,4.00
2023-04-20T04:05:02.688Z,4.00
2023-04-20T04:06:02.653Z,4.00
2023-04-20T04:07:02.053Z,4.00
2023-04-20T04:08:02.422Z,8.00
2023-04-20T04:09:02.117Z,12.00
2023-04-20T04:10:01.923Z,12.00
2023-04-20T04:11:02.463Z,12.00
2023-04-20T04:12:02.291Z,12.00
2023-04-20T04:13:02.227Z,12.00
2023-04-20T04:14:02.085Z,12.00
2023-04-20T04:15:02.287Z,16.00
2023-04-20T04:16:02.148Z,16.00
2023-04-20T04:17:02.257Z,20.00
2023-04-20T04:18:02.605Z,20.00
2023-04-20T04:19:02.692Z,24.00
2023-04-20T04:20:02.125Z,28.00
2023-04-20T04:21:02.472Z,32.00
2023-04-20T04:22:02.303Z,36.00
2023-04-20T04:23:02.419Z,40.00
2023-04-20T04:24:02.374Z,44.00
2023-04-20T04:25:02.378Z,40.00
2023-04-20T04:26:02.326Z,40.00
2023-04-20T04:27:02.946Z,44.00
2023-04-20T04:28:02.883Z,48.00
2023-04-20T04:29:03.137Z,52.00
2023-04-20T04:30:03.118Z,60.00
2023-04-20T04:31:02.975Z,68.00
2023-04-20T04:32:02.714Z,76.00
2023-04-20T04:33:02.542Z,80.00
2023-04-20T04:34:02.787Z,88.00
2023-04-20T04:35:02.649Z,96.00
2023-04-20T04:36:02.638Z,104.00
2023-04-20T04:37:02.197Z,112.00
2023-04-20T04:38:02.136Z,116.00
2023-04-20T04:39:02.187Z,124.00
2023-04-20T04:40:02.871Z,128.00
2023-04-20T04:41:02.008Z,128.00
2023-04-20T04:42:04.752Z,132.00
2023-04-20T04:43:02.296Z,132.00
2023-04-20T04:44:02.432Z,140.00
2023-04-20T04:45:02.364Z,152.00
2023-04-20T04:46:02.559Z,172.00
2023-04-20T04:47:02.270Z,188.00
2023-04-20T04:48:02.232Z,208.00
2023-04-20T04:49:02.112Z,232.00
2023-04-20T04:50:01.978Z,248.00
2023-04-20T04:51:01.886Z,268.00
2023-04-20T04:52:02.895Z,296.00
2023-04-20T04:53:02.583Z,304.00
2023-04-20T04:54:02.548Z,300.00
2023-04-20T04:55:02.949Z,304.00
2023-04-20T04:56:02.495Z,308.00
2023-04-20T04:57:03.047Z,312.00
2023-04-20T04:58:03.133Z,316.00
2023-04-20T04:59:02.734Z,304.00
2023-04-20T05:00:02.632Z,292.00
2023-04-20T05:01:02.722Z,296.00
2023-04-20T05:02:02.892Z,328.00
2023-04-20T05:03:02.825Z,356.00
2023-04-20T05:04:02.496Z,380.00
2023-04-20T05:05:02.794Z,392.00
2023-04-20T05:06:02.580Z,412.00
2023-04-20T05:07:02.697Z,444.00
2023-04-20T05:08:02.802Z,484.00
2023-04-20T05:09:02.450Z,532.00
2023-04-20T05:10:02.436Z,580.00
2023-04-20T05:11:02.633Z,636.00
2023-04-20T05:12:03.285Z,712.00
2023-04-20T05:13:02.883Z,768.00
2023-04-20T05:14:03.218Z,792.00
2023-04-20T05:15:02.930Z,800.00
2023-04-20T05:16:03.438Z,832.00
2023-04-20T05:17:02.738Z,888.00
2023-04-20T05:18:02.628Z,924.00
2023-04-20T05:19:02.443Z,956.00
2023-04-20T05:20:02.851Z,972.00
2023-04-20T05:21:02.549Z,972.00
2023-04-20T05:22:02.968Z,956.00
2023-04-20T05:23:03.214Z,912.00
2023-04-20T05:24:02.958Z,848.00
2023-04-20T05:25:02.810Z,808.00
2023-04-20T05:26:02.943Z,844.00
2023-04-20T05:27:02.655Z,900.00
2023-04-20T05:28:02.396Z,928.00
2023-04-20T05:29:02.344Z,932.00
2023-04-20T05:30:13.146Z,956.00
2023-04-20T05:31:02.270Z,1012.00
2023-04-20T05:32:02.998Z,1072.00
2023-04-20T05:33:02.716Z,1104.00
2023-04-20T05:34:03.037Z,1100.00
2023-04-20T05:35:02.641Z,1056.00
2023-04-20T05:36:02.495Z,1012.00
2023-04-20T05:37:03.152Z,1008.00
2023-04-20T05:38:02.901Z,1056.00
2023-04-20T05:39:02.667Z,1124.00
2023-04-20T05:40:03.112Z,1196.00
2023-04-20T05:41:02.714Z,1264.00
2023-04-20T05:42:02.493Z,1344.00
2023-04-20T05:43:02.017Z,1452.00
2023-04-20T05:44:02.080Z,1596.00
2023-04-20T05:45:02.297Z,1836.00
2023-04-20T05:46:02.510Z,2160.00
2023-04-20T05:47:02.379Z,2512.00
2023-04-20T05:48:02.763Z,2824.00
2023-04-20T05:49:02.534Z,3028.00
2023-04-20T05:50:02.505Z,3144.00
2023-04-20T05:51:02.289Z,3116.00
2023-04-20T05:52:02.593Z,3036.00
2023-04-20T05:53:01.916Z,2988.00
2023-04-20T05:54:02.452Z,3112.00
2023-04-20T05:55:02.498Z,3316.00
2023-04-20T05:56:02.145Z,3496.00
2023-04-20T05:57:02.859Z,3636.00
2023-04-20T05:58:02.710Z,3768.00
2023-04-20T05:59:02.566Z,3852.00
2023-04-20T06:00:02.545Z,3876.00
2023-04-20T06:01:02.738Z,4032.00
2023-04-20T06:02:03.388Z,4340.00
2023-04-20T06:03:03.366Z,4532.00
2023-04-20T06:04:03.204Z,4740.00
2023-04-20T06:05:03.035Z,4976.00
2023-04-20T06:06:03.184Z,5024.00
2023-04-20T06:07:02.669Z,4956.00
2023-04-20T06:08:03.244Z,4772.00
2023-04-20T06:09:03.283Z,4660.00
2023-04-20T06:10:03.036Z,4616.00
2023-04-20T06:11:03.045Z,4668.00
2023-04-20T06:12:03.659Z,4716.00
2023-04-20T06:13:03.123Z,4704.00
2023-04-20T06:14:03.369Z,4616.00
2023-04-20T06:15:03.383Z,4460.00
2023-04-20T06:16:03.474Z,4244.00
2023-04-20T06:17:02.441Z,4120.00
2023-04-20T06:18:03.055Z,4000.00
2023-04-20T06:19:03.001Z,3744.00
2023-04-20T06:20:02.689Z,3480.00
2023-04-20T06:21:02.493Z,3292.00
2023-04-20T06:22:02.770Z,3212.00
2023-04-20T06:23:03.317Z,3232.00
2023-04-20T06:24:02.888Z,3176.00
2023-04-20T06:25:03.138Z,3128.00
2023-04-20T06:26:03.334Z,3068.00
2023-04-20T06:27:03.677Z,2972.00
2023-04-20T06:28:03.376Z,2884.00
2023-04-20T06:29:03.347Z,2860.00
2023-04-20T06:30:03.198Z,2908.00
2023-04-20T06:31:03.323Z,3076.00
2023-04-20T06:32:02.315Z,3228.00
2023-04-20T06:33:02.597Z,3352.00
2023-04-20T06:34:02.499Z,3508.00
2023-04-20T06:35:02.334Z,3636.00
2023-04-20T06:36:02.483Z,3740.00
2023-04-20T06:37:02.702Z,3968.00
2023-04-20T06:38:02.451Z,4264.00
2023-04-20T06:39:02.375Z,4424.00
2023-04-20T06:40:03.074Z,4420.00
2023-04-20T06:41:02.475Z,4528.00
2023-04-20T06:42:03.101Z,4748.00
2023-04-20T06:43:03.681Z,4824.00
2023-04-20T06:44:03.398Z,4968.00
2023-04-20T06:45:03.360Z,5012.00
2023-04-20T06:46:03.235Z,4748.00
2023-04-20T06:47:03.596Z,4592.00
2023-04-20T06:48:03.525Z,4560.00
2023-04-20T06:49:03.651Z,4828.00
2023-04-20T06:50:03.561Z,5032.00
2023-04-20T06:51:03.343Z,5156.00
2023-04-20T06:52:03.214Z,5252.00
2023-04-20T06:53:02.886Z,5052.00
2023-04-20T06:54:03.112Z,4608.00
2023-04-20T06:55:03.039Z,4364.00
2023-04-20T06:56:03.055Z,4284.00
2023-04-20T06:57:02.926Z,4168.00
2023-04-20T06:58:03.202Z,4432.00
2023-04-20T06:59:03.213Z,4860.00
2023-04-20T07:00:03.020Z,5276.00
2023-04-20T07:01:02.797Z,5928.00
2023-04-20T07:02:02.892Z,6684.00
2023-04-20T07:03:02.779Z,7100.00
2023-04-20T07:04:02.677Z,7108.00
2023-04-20T07:05:02.885Z,7300.00
2023-04-20T07:06:02.461Z,7988.00
2023-04-20T07:07:02.769Z,8468.00
2023-04-20T07:08:02.656Z,8620.00
2023-04-20T07:09:03.181Z,8684.00
2023-04-20T07:10:02.919Z,8848.00
2023-04-20T07:11:02.695Z,8908.00
2023-04-20T07:12:02.073Z,8776.00
2023-04-20T07:13:02.043Z,8360.00
2023-04-20T07:14:02.009Z,7904.00
2023-04-20T07:15:02.295Z,7620.00
2023-04-20T07:16:02.300Z,7636.00
2023-04-20T07:17:02.179Z,7700.00
2023-04-20T07:18:02.373Z,7964.00
2023-04-20T07:19:02.227Z,8044.00
2023-04-20T07:20:02.356Z,8036.00
2023-04-20T07:21:02.040Z,8280.00
2023-04-20T07:22:02.383Z,8368.00
2023-04-20T07:23:02.326Z,8296.00
2023-04-20T07:24:02.294Z,8432.00
2023-04-20T07:25:02.839Z,8596.00
2023-04-20T07:26:02.496Z,8844.00
2023-04-20T07:27:02.446Z,9132.00
2023-04-20T07:28:02.360Z,9268.00
2023-04-20T07:29:02.825Z,9312.00
2023-04-20T07:30:02.633Z,9128.00
2023-04-20T07:31:02.251Z,8704.00
2023-04-20T07:32:02.881Z,8344.00
2023-04-20T07:33:02.833Z,8504.00
2023-04-20T07:34:02.956Z,8604.00
2023-04-20T07:35:02.890Z,8364.00
2023-04-20T07:36:02.851Z,7756.00
2023-04-20T07:37:02.535Z,7680.00
2023-04-20T07:38:02.412Z,7732.00
2023-04-20T07:39:02.713Z,7896.00
2023-04-20T07:40:02.679Z,8152.00
2023-04-20T07:41:02.549Z,7904.00
2023-04-20T07:42:02.098Z,8152.00
2023-04-20T07:43:01.981Z,8872.00
2023-04-20T07:44:01.873Z,9824.00
2023-04-20T07:45:01.841Z,11200.00
2023-04-20T07:46:02.448Z,11920.00
2023-04-20T07:47:03.011Z,11984.00
2023-04-20T07:48:02.896Z,11800.00
2023-04-20T07:49:02.499Z,11104.00
2023-04-20T07:50:02.490Z,11332.00
2023-04-20T07:51:02.441Z,12692.00
2023-04-20T07:52:15.095Z,14080.00
2023-04-20T07:53:02.037Z,14692.00
2023-04-20T07:54:02.553Z,14472.00
2023-04-20T07:55:02.302Z,14352.00
2023-04-20T07:56:02.572Z,14812.00
2023-04-20T07:57:03.122Z,15232.00
2023-04-20T07:58:03.155Z,15616.00
2023-04-20T07:59:02.687Z,15520.00
2023-04-20T08:00:03.265Z,15136.00
2023-04-20T08:01:02.852Z,14884.00
2023-04-20T08:02:02.631Z,15200.00
2023-04-20T08:03:02.509Z,14908.00
2023-04-20T08:04:02.744Z,14152.00
2023-04-20T08:05:02.975Z,13772.00
2023-04-20T08:06:02.264Z,13576.00
2023-04-20T08:07:02.711Z,13832.00
2023-04-20T08:08:02.470Z,13804.00
2023-04-20T08:09:02.411Z,12340.00
2023-04-20T08:10:02.264Z,11960.00
2023-04-20T08:11:02.348Z,13304.00
2023-04-20T08:12:03.002Z,14296.00
2023-04-20T08:13:02.505Z,14364.00
2023-04-20T08:14:02.939Z,13352.00
2023-04-20T08:15:02.899Z,13084.00
2023-04-20T08:16:02.984Z,13404.00
2023-04-20T08:17:02.602Z,13816.00
2023-04-20T08:18:02.430Z,15212.00
2023-04-20T08:19:02.304Z,17920.00
2023-04-20T08:20:02.102Z,18208.00
2023-04-20T08:21:02.102Z,17760.00
2023-04-20T08:22:03.434Z,17120.00
2023-04-20T08:23:02.656Z,15680.00
2023-04-20T08:24:02.519Z,14948.00
2023-04-20T08:25:02.482Z,14728.00
2023-04-20T08:26:02.972Z,14388.00
2023-04-20T08:27:03.260Z,13756.00
2023-04-20T08:28:04.287Z,13340.00
2023-04-20T08:29:03.074Z,13252.00
2023-04-20T08:30:02.848Z,13708.00
2023-04-20T08:31:02.843Z,14352.00
2023-04-20T08:32:02.881Z,14456.00
2023-04-20T08:33:02.266Z,13460.00
2023-04-20T08:34:02.110Z,12592.00
2023-04-20T08:35:02.059Z,12384.00
2023-04-20T08:36:02.637Z,12392.00
2023-04-20T08:37:02.683Z,12016.00
2023-04-20T08:38:02.433Z,11172.00
2023-04-20T08:39:02.408Z,10544.00
2023-04-20T08:40:02.386Z,10296.00
2023-04-20T08:41:02.179Z,9820.00
2023-04-20T08:42:02.622Z,9164.00
2023-04-20T08:43:02.600Z,8412.00
2023-04-20T08:44:02.480Z,7696.00
2023-04-20T08:45:02.659Z,7024.00
2023-04-20T08:46:02.443Z,6868.00
2023-04-20T08:47:03.194Z,6976.00
2023-04-20T08:48:03.027Z,6708.00
2023-04-20T08:49:02.876Z,6328.00
2023-04-20T08:50:02.651Z,5072.00
2023-04-20T08:51:02.562Z,4408.00
2023-04-20T08:52:02.566Z,4724.00
2023-04-20T08:53:03.064Z,4788.00
2023-04-20T08:54:02.926Z,5092.00
2023-04-20T08:55:02.736Z,5280.00
2023-04-20T08:56:02.749Z,5144.00
2023-04-20T08:57:02.535Z,5408.00
2023-04-20T08:58:02.218Z,6580.00
2023-04-20T08:59:01.993Z,7756.00
2023-04-20T09:00:02.224Z,7888.00
2023-04-20T09:01:02.136Z,7536.00
2023-04-20T09:02:02.880Z,7084.00
2023-04-20T09:03:02.541Z,7068.00
2023-04-20T09:04:02.936Z,7596.00
2023-04-20T09:05:02.684Z,8380.00
2023-04-20T09:06:02.497Z,9244.00
2023-04-20T09:07:02.504Z,10536.00
2023-04-20T09:08:02.698Z,12280.00
2023-04-20T09:09:02.677Z,13108.00
2023-04-20T09:10:02.468Z,14032.00
2023-04-20T09:11:03.120Z,15328.00
2023-04-20T09:12:03.482Z,16256.00
2023-04-20T09:13:03.157Z,17056.00
2023-04-20T09:14:03.389Z,17824.00
2023-04-20T09:15:03.243Z,18464.00
2023-04-20T09:16:03.172Z,18784.00
2023-04-20T09:17:02.224Z,19104.00
2023-04-20T09:18:02.910Z,19136.00
2023-04-20T09:19:02.305Z,18880.00
2023-04-20T09:20:02.314Z,18624.00
2023-04-20T09:21:02.840Z,18432.00
2023-04-20T09:22:02.588Z,18528.00
2023-04-20T09:23:03.086Z,18496.00
2023-04-20T09:24:03.053Z,18400.00
2023-04-20T09:25:02.938Z,18496.00
2023-04-20T09:26:03.137Z,19072.00
2023-04-20T09:27:02.815Z,19808.00
2023-04-20T09:28:03.475Z,20480.00
2023-04-20T09:29:03.237Z,20928.00
2023-04-20T09:30:03.183Z,21216.00
2023-04-20T09:31:03.132Z,21472.00
2023-04-20T09:32:02.097Z,21568.00
2023-04-20T09:33:02.710Z,21408.00
2023-04-20T09:34:02.416Z,20992.00
2023-04-20T09:35:02.410Z,20608.00
2023-04-20T09:36:02.291Z,20512.00
2023-04-20T09:37:02.122Z,20672.00
2023-04-20T09:38:02.121Z,20640.00
2023-04-20T09:39:02.357Z,20096.00
2023-04-20T09:40:02.351Z,19136.00
2023-04-20T09:41:02.144Z,17664.00
2023-04-20T09:42:02.810Z,16576.00
2023-04-20T09:43:02.768Z,15808.00
2023-04-20T09:44:03.238Z,14764.00
2023-04-20T09:45:03.163Z,14188.00
2023-04-20T09:46:03.165Z,14332.00
2023-04-20T09:47:02.444Z,15296.00
2023-04-20T09:48:02.358Z,16352.00
2023-04-20T09:49:02.948Z,17248.00
2023-04-20T09:50:14.052Z,17984.00
2023-04-20T09:51:02.622Z,18016.00
2023-04-20T09:52:02.509Z,17184.00
2023-04-20T09:53:02.470Z,15552.00
2023-04-20T09:54:02.478Z,14356.00
2023-04-20T09:55:03.043Z,14584.00
2023-04-20T09:56:02.688Z,15712.00
2023-04-20T09:57:02.646Z,16704.00
2023-04-20T09:58:03.162Z,17920.00
2023-04-20T09:59:02.759Z,18688.00
2023-04-20T10:00:03.115Z,17696.00
2023-04-20T10:01:02.900Z,16704.00
2023-04-20T10:02:02.841Z,15968.00
2023-04-20T10:03:02.992Z,15616.00
2023-04-20T10:04:03.425Z,13744.00
2023-04-20T10:05:03.454Z,11840.00
2023-04-20T10:06:03.243Z,11548.00
2023-04-20T10:07:02.981Z,13984.00
2023-04-20T10:08:03.023Z,17600.00
2023-04-20T10:09:02.872Z,20096.00
2023-04-20T10:10:03.388Z,21536.00
2023-04-20T10:11:03.365Z,22016.00
2023-04-20T10:12:02.242Z,21632.00
2023-04-20T10:13:02.746Z,21792.00
2023-04-20T10:14:02.432Z,20288.00
2023-04-20T10:15:02.109Z,18144.00
2023-04-20T10:16:02.697Z,16736.00
2023-04-20T10:17:02.520Z,15808.00
2023-04-20T10:18:02.713Z,14716.00
2023-04-20T10:19:02.590Z,14468.00
2023-04-20T10:20:02.590Z,14936.00
2023-04-20T10:21:02.594Z,15100.00
2023-04-20T10:22:02.596Z,15180.00
2023-04-20T10:23:02.621Z,15520.00
2023-04-20T10:24:02.741Z,15116.00
2023-04-20T10:25:02.734Z,14112.00
2023-04-20T10:26:02.780Z,13452.00
2023-04-20T10:27:02.724Z,13468.00
2023-04-20T10:28:02.820Z,12956.00
2023-04-20T10:29:02.887Z,11808.00
2023-04-20T10:30:02.864Z,12080.00
2023-04-20T10:31:02.846Z,13616.00
2023-04-20T10:32:02.754Z,14804.00
2023-04-20T10:33:02.918Z,15136.00
2023-04-20T10:34:02.866Z,15392.00
2023-04-20T10:35:02.957Z,15680.00
2023-04-20T10:36:03.056Z,17056.00
2023-04-20T10:37:02.197Z,21632.00
2023-04-20T10:38:02.275Z,26464.00
2023-04-20T10:39:02.341Z,30016.00
2023-04-20T10:40:02.456Z,32032.00
2023-04-20T10:41:02.344Z,29728.00
2023-04-20T10:42:02.262Z,31104.00
2023-04-20T10:43:02.358Z,27232.00
2023-04-20T10:44:02.403Z,22080.00
2023-04-20T10:45:02.400Z,24800.00
2023-04-20T10:46:02.551Z,18304.00
2023-04-20T10:47:02.772Z,15680.00
2023-04-20T10:48:02.880Z,13612.00
2023-04-20T10:49:02.983Z,12060.00
2023-04-20T10:50:02.951Z,11192.00
2023-04-20T10:51:02.983Z,10564.00
2023-04-20T10:52:02.991Z,11236.00
2023-04-20T10:53:02.872Z,12480.00
2023-04-20T10:54:02.851Z,13456.00
2023-04-20T10:55:02.822Z,15264.00
2023-04-20T10:56:03.408Z,17792.00
2023-04-20T10:57:02.488Z,19936.00
2023-04-20T10:58:02.382Z,20672.00
2023-04-20T10:59:02.481Z,20448.00
2023-04-20T11:00:02.456Z,21312.00
2023-04-20T11:01:02.434Z,26784.00
2023-04-20T11:02:03.166Z,19264.00
2023-04-20T11:03:03.266Z,19040.00
2023-04-20T11:04:03.399Z,32928.00
2023-04-20T11:05:02.910Z,37824.00
2023-04-20T11:06:02.973Z,24832.00
2023-04-20T11:07:03.232Z,22144.00
2023-04-20T11:08:03.340Z,21184.00
2023-04-20T11:09:02.985Z,25152.00
2023-04-20T11:10:02.978Z,32288.00
2023-04-20T11:11:03.025Z,32224.00
2023-04-20T11:12:02.817Z,31520.00
2023-04-20T11:13:02.809Z,28544.00
2023-04-20T11:14:02.862Z,28480.00
2023-04-20T11:15:02.935Z,26496.00
2023-04-20T11:16:03.099Z,24288.00
2023-04-20T11:17:03.383Z,22400.00
2023-04-20T11:18:03.575Z,20608.00
2023-04-20T11:19:03.553Z,19328.00
2023-04-20T11:20:03.571Z,18400.00
2023-04-20T11:21:03.377Z,18272.00
2023-04-20T11:22:02.847Z,18432.00
2023-04-20T11:23:02.972Z,17376.00
2023-04-20T11:24:02.932Z,15680.00
2023-04-20T11:25:03.021Z,14052.00
2023-04-20T11:26:03.037Z,12760.00
2023-04-20T11:27:02.860Z,11848.00
2023-04-20T11:28:03.266Z,10668.00
2023-04-20T11:29:03.097Z,8880.00
2023-04-20T11:30:02.906Z,7548.00
2023-04-20T11:31:02.919Z,7228.00
2023-04-20T11:32:03.070Z,7940.00
2023-04-20T11:33:02.923Z,9188.00
2023-04-20T11:34:04.824Z,9656.00
2023-04-20T11:35:06.493Z,10296.00
2023-04-20T11:36:03.163Z,11456.00
2023-04-20T11:37:03.029Z,14028.00
2023-04-20T11:38:03.043Z,17024.00
2023-04-20T11:39:03.087Z,18528.00
2023-04-20T11:40:03.156Z,18880.00
2023-04-20T11:41:02.781Z,19552.00
2023-04-20T11:42:03.487Z,19968.00
2023-04-20T11:43:03.494Z,20640.00
2023-04-20T11:44:03.572Z,22176.00
2023-04-20T11:45:03.524Z,22976.00
2023-04-20T11:46:03.724Z,22144.00
2023-04-20T11:47:02.666Z,22592.00
2023-04-20T11:48:02.881Z,23552.00
2023-04-20T11:49:02.736Z,22976.00
2023-04-20T11:50:02.548Z,21472.00
2023-04-20T11:51:02.674Z,20832.00
2023-04-20T11:52:03.203Z,23904.00
2023-04-20T11:53:02.797Z,28544.00
2023-04-20T11:54:02.742Z,36128.00
2023-04-20T11:55:02.875Z,32896.00
2023-04-20T11:56:03.029Z,27456.00
2023-04-20T11:57:02.733Z,24896.00
2023-04-20T11:58:02.708Z,23936.00
2023-04-20T11:59:02.677Z,24000.00
2023-04-20T12:00:02.776Z,24768.00
2023-04-20T12:01:02.653Z,26176.00
2023-04-20T12:02:02.523Z,26848.00
2023-04-20T12:03:02.524Z,26752.00
2023-04-20T12:04:02.773Z,26112.00
2023-04-20T12:05:02.107Z,24992.00
2023-04-20T12:06:02.070Z,25408.00
2023-04-20T12:07:02.332Z,26272.00
2023-04-20T12:08:02.805Z,25472.00
2023-04-20T12:09:02.678Z,24576.00
2023-04-20T12:10:02.517Z,23392.00
2023-04-20T12:11:02.526Z,21792.00
2023-04-20T12:12:03.016Z,21760.00
2023-04-20T12:13:02.734Z,22752.00
2023-04-20T12:14:02.447Z,24160.00
2023-04-20T12:15:03.001Z,25216.00
2023-04-20T12:16:02.690Z,25440.00
2023-04-20T12:17:02.684Z,22688.00
2023-04-20T12:18:02.205Z,19936.00
2023-04-20T12:19:02.173Z,17792.00
2023-04-20T12:20:02.112Z,18112.00
2023-04-20T12:21:02.136Z,31264.00
2023-04-20T12:22:02.879Z,31008.00
2023-04-20T12:23:02.744Z,35360.00
2023-04-20T12:24:02.418Z,29888.00